createdAt,value
2022-08-10T00:00:31.978Z,17.25
2022-08-10T00:01:32.084Z,17.22
2022-08-10T00:02:32.103Z,17.24
2022-08-10T00:03:31.956Z,17.22
2022-08-10T00:04:31.938Z,17.19
2022-08-10T00:05:43.864Z,17.19
2022-08-10T00:06:32.966Z,17.22
2022-08-10T00:07:31.929Z,17.19
2022-08-10T00:08:31.895Z,17.17
2022-08-10T00:09:31.889Z,17.14
2022-08-10T00:10:31.863Z,17.14
2022-08-10T00:11:31.858Z,17.12
2022-08-10T00:12:53.337Z,17.13
2022-08-10T00:13:32.829Z,17.13
2022-08-10T00:14:31.811Z,17.10
2022-08-10T00:15:52.645Z,17.10
2022-08-10T00:16:32.808Z,17.07
2022-08-10T00:17:31.822Z,17.10
2022-08-10T00:18:35.825Z,17.07
2022-08-10T00:20:02.174Z,17.07
2022-08-10T00:20:32.756Z,17.06
2022-08-10T00:21:31.742Z,17.02
2022-08-10T00:22:31.787Z,17.01
2022-08-10T00:23:31.726Z,17.02
2022-08-10T00:24:31.721Z,16.99
2022-08-10T00:25:31.690Z,16.99
2022-08-10T00:27:52.094Z,16.95
2022-08-10T00:27:52.304Z,16.98
2022-08-10T00:28:32.665Z,16.98
2022-08-10T00:29:31.662Z,16.95
2022-08-10T00:30:31.652Z,16.94
2022-08-10T00:31:31.654Z,16.94
2022-08-10T00:32:32.954Z,16.94
2022-08-10T00:33:31.634Z,16.94
2022-08-10T00:34:31.636Z,16.90
2022-08-10T00:35:31.648Z,16.94
2022-08-10T00:36:31.830Z,16.92
2022-08-10T00:37:31.625Z,16.92
2022-08-10T00:38:31.564Z,16.90
2022-08-10T00:39:36.110Z,16.90
2022-08-10T00:40:37.460Z,16.87
2022-08-10T00:41:32.539Z,16.88
2022-08-10T00:42:31.613Z,16.83
2022-08-10T00:43:31.571Z,16.82
2022-08-10T00:44:31.527Z,16.80
2022-08-10T00:45:31.522Z,16.80
2022-08-10T00:46:31.510Z,16.79
2022-08-10T00:47:37.144Z,16.76
2022-08-10T00:48:32.481Z,16.77
2022-08-10T00:49:31.456Z,16.76
2022-08-10T00:50:31.461Z,16.76
2022-08-10T00:51:48.381Z,16.74
2022-08-10T00:52:32.516Z,16.74
2022-08-10T00:53:31.432Z,16.77
2022-08-10T00:54:31.388Z,16.73
2022-08-10T00:55:31.382Z,16.74
2022-08-10T00:57:10.118Z,16.73
2022-08-10T00:57:32.386Z,16.74
2022-08-10T00:58:31.372Z,16.73
2022-08-10T00:59:31.362Z,16.70
2022-08-10T01:00:31.342Z,16.73
2022-08-10T01:02:10.898Z,16.70
2022-08-10T01:02:33.196Z,16.72
2022-08-10T01:04:54.542Z,16.67
2022-08-10T01:04:58.919Z,16.67
2022-08-10T01:05:32.274Z,16.67
2022-08-10T01:06:31.329Z,16.65
2022-08-10T01:07:31.374Z,16.67
2022-08-10T01:08:31.258Z,16.67
2022-08-10T01:09:31.247Z,16.65
2022-08-10T01:10:31.236Z,16.65
2022-08-10T01:12:37.480Z,16.62
2022-08-10T01:12:40.856Z,16.61
2022-08-10T01:13:32.216Z,16.62
2022-08-10T01:14:31.207Z,16.59
2022-08-10T01:15:31.172Z,16.62
2022-08-10T01:16:31.219Z,16.58
2022-08-10T01:17:49.566Z,16.58
2022-08-10T01:18:37.171Z,16.58
2022-08-10T01:19:32.181Z,16.55
2022-08-10T01:20:31.393Z,16.57
2022-08-10T01:21:31.171Z,16.55
2022-08-10T01:22:31.109Z,16.57
2022-08-10T01:23:31.101Z,16.52
2022-08-10T01:24:31.103Z,16.51
2022-08-10T01:25:31.072Z,16.51
2022-08-10T01:26:32.008Z,16.47
2022-08-10T01:27:31.041Z,16.46
2022-08-10T01:28:31.042Z,16.46
2022-08-10T01:29:31.074Z,16.44
2022-08-10T01:30:31.008Z,16.44
2022-08-10T01:31:30.992Z,16.47
2022-08-10T01:32:30.988Z,16.46
2022-08-10T01:33:57.940Z,16.46
2022-08-10T01:34:31.994Z,16.47
2022-08-10T01:35:30.970Z,16.44
2022-08-10T01:36:32.531Z,16.44
2022-08-10T01:37:30.940Z,16.42
2022-08-10T01:38:30.929Z,16.43
2022-08-10T01:39:30.979Z,16.42
2022-08-10T01:40:30.974Z,16.42
2022-08-10T01:41:45.497Z,16.40
2022-08-10T01:42:31.971Z,16.40
2022-08-10T01:43:30.865Z,16.40
2022-08-10T01:44:30.862Z,16.39
2022-08-10T01:45:30.875Z,16.37
2022-08-10T01:46:31.837Z,16.40
2022-08-10T01:47:30.837Z,16.36
2022-08-10T01:48:30.815Z,16.40
2022-08-10T01:49:30.803Z,16.37
2022-08-10T01:50:30.826Z,16.39
2022-08-10T01:51:30.781Z,16.37
2022-08-10T01:52:30.760Z,16.39
2022-08-10T01:53:39.977Z,16.36
2022-08-10T01:54:31.758Z,16.34
2022-08-10T01:55:30.738Z,16.34
2022-08-10T01:56:30.766Z,16.36
2022-08-10T01:57:30.719Z,16.39
2022-08-10T01:58:30.698Z,16.34
2022-08-10T01:59:30.697Z,16.37
2022-08-10T02:00:30.690Z,16.34
2022-08-10T02:01:30.790Z,16.33
2022-08-10T02:02:30.661Z,16.33
2022-08-10T02:03:30.669Z,16.32
2022-08-10T02:04:30.650Z,16.32
2022-08-10T02:05:30.664Z,16.29
2022-08-10T02:06:30.649Z,16.29
2022-08-10T02:07:30.644Z,16.26
2022-08-10T02:08:30.619Z,16.26
2022-08-10T02:09:30.634Z,16.28
2022-08-10T02:10:30.611Z,16.26
2022-08-10T02:11:30.572Z,16.25
2022-08-10T02:12:31.633Z,16.25
2022-08-10T02:13:30.552Z,16.26
2022-08-10T02:14:33.595Z,16.25
2022-08-10T02:15:30.563Z,16.28
2022-08-10T02:16:30.513Z,16.25
2022-08-10T02:17:59.719Z,16.25
2022-08-10T02:18:31.527Z,16.24
2022-08-10T02:19:30.475Z,16.25
2022-08-10T02:20:31.618Z,16.24
2022-08-10T02:21:30.446Z,16.22
2022-08-10T02:22:45.927Z,16.18
2022-08-10T02:23:31.437Z,16.17
2022-08-10T02:24:30.437Z,16.21
2022-08-10T02:25:41.810Z,16.17
2022-08-10T02:26:31.445Z,16.18
2022-08-10T02:27:30.406Z,16.17
2022-08-10T02:28:31.265Z,16.14
2022-08-10T02:29:30.370Z,16.14
2022-08-10T02:30:30.417Z,16.16
2022-08-10T02:31:30.358Z,16.14
2022-08-10T02:32:35.997Z,16.14
2022-08-10T02:33:31.338Z,16.13
2022-08-10T02:34:30.357Z,16.16
2022-08-10T02:35:33.537Z,16.14
2022-08-10T02:36:31.350Z,16.10
2022-08-10T02:37:30.300Z,16.10
2022-08-10T02:38:58.281Z,16.10
2022-08-10T02:39:31.285Z,16.10
2022-08-10T02:45:01.818Z,16.10
2022-08-10T02:45:15.217Z,16.09
2022-08-10T02:45:21.692Z,16.09
2022-08-10T02:45:23.751Z,16.10
2022-08-10T02:45:24.428Z,16.09
2022-08-10T02:45:32.068Z,16.10
2022-08-10T02:46:30.283Z,16.10
2022-08-10T02:47:30.187Z,16.08
2022-08-10T02:48:31.171Z,16.06
2022-08-10T02:49:30.170Z,16.08
2022-08-10T02:50:30.180Z,16.08
2022-08-10T02:52:06.747Z,16.05
2022-08-10T02:52:31.170Z,16.06
2022-08-10T02:53:55.179Z,16.05
2022-08-10T02:54:31.092Z,16.03
2022-08-10T02:55:32.413Z,16.06
2022-08-10T02:56:30.126Z,16.03
2022-08-10T02:57:30.074Z,16.03
2022-08-10T02:58:30.122Z,16.03
2022-08-10T02:59:39.601Z,16.03
2022-08-10T03:00:31.094Z,15.99
2022-08-10T03:01:30.073Z,16.00
2022-08-10T03:02:30.033Z,15.98
2022-08-10T03:03:30.050Z,15.99
2022-08-10T03:04:55.830Z,15.96
2022-08-10T03:05:31.006Z,15.98
2022-08-10T03:06:29.978Z,15.98
2022-08-10T03:07:43.885Z,16.00
2022-08-10T03:08:31.018Z,15.99
2022-08-10T03:09:29.928Z,15.98
2022-08-10T03:10:29.928Z,15.95
2022-08-10T03:12:36.537Z,15.95
2022-08-10T03:12:36.995Z,15.91
2022-08-10T03:13:30.903Z,15.91
2022-08-10T03:14:29.959Z,15.93
2022-08-10T03:15:29.902Z,15.93
2022-08-10T03:16:33.065Z,15.93
2022-08-10T03:17:29.859Z,15.88
2022-08-10T03:18:29.874Z,15.95
2022-08-10T03:20:33.993Z,15.91
2022-08-10T03:20:36.574Z,15.93
2022-08-10T03:21:30.863Z,15.90
2022-08-10T03:22:29.814Z,15.90
2022-08-10T03:23:29.838Z,15.91
2022-08-10T03:24:32.810Z,15.88
2022-08-10T03:25:29.790Z,15.91
2022-08-10T03:26:29.761Z,15.93
2022-08-10T03:27:29.752Z,15.90
2022-08-10T03:28:29.781Z,15.88
2022-08-10T03:29:29.746Z,15.87
2022-08-10T03:30:33.522Z,15.85
2022-08-10T03:31:29.706Z,15.84
2022-08-10T03:32:29.849Z,15.87
2022-08-10T03:33:29.765Z,15.83
2022-08-10T03:34:33.493Z,15.81
2022-08-10T03:35:29.671Z,15.80
2022-08-10T03:36:43.020Z,15.78
2022-08-10T03:37:30.639Z,15.80
2022-08-10T03:38:29.647Z,15.76
2022-08-10T03:39:29.736Z,15.76
2022-08-10T03:40:32.165Z,15.76
2022-08-10T03:41:30.614Z,15.76
2022-08-10T03:42:30.606Z,15.77
2022-08-10T03:43:29.606Z,15.73
2022-08-10T03:44:29.616Z,15.77
2022-08-10T03:45:29.556Z,15.76
2022-08-10T03:46:30.535Z,15.72
2022-08-10T03:47:29.549Z,15.70
2022-08-10T03:48:44.762Z,15.68
2022-08-10T03:49:30.546Z,15.66
2022-08-10T03:50:51.547Z,15.68
2022-08-10T03:51:30.489Z,15.65
2022-08-10T03:52:29.489Z,15.68
2022-08-10T03:54:04.804Z,15.66
2022-08-10T03:54:30.499Z,15.68
2022-08-10T03:56:29.460Z,15.66
2022-08-10T03:56:32.284Z,15.68
2022-08-10T03:57:29.427Z,15.65
2022-08-10T03:58:29.418Z,15.68
2022-08-10T03:59:29.455Z,15.65
2022-08-10T04:00:29.405Z,15.62
2022-08-10T04:02:42.156Z,15.62
2022-08-10T04:02:45.905Z,15.63
2022-08-10T04:03:30.377Z,15.60
2022-08-10T04:04:29.369Z,15.60
2022-08-10T04:05:38.758Z,15.62
2022-08-10T04:06:30.332Z,15.62
2022-08-10T04:07:29.311Z,15.60
2022-08-10T04:08:29.301Z,15.60
2022-08-10T04:09:43.213Z,15.63
2022-08-10T04:10:30.261Z,15.62
2022-08-10T04:11:29.282Z,15.60
2022-08-10T04:12:29.230Z,15.60
2022-08-10T04:13:29.253Z,15.59
2022-08-10T04:14:38.557Z,15.59
2022-08-10T04:15:30.231Z,15.54
2022-08-10T04:16:29.241Z,15.52
2022-08-10T04:18:02.810Z,15.52
2022-08-10T04:18:30.179Z,15.54
2022-08-10T04:19:29.173Z,15.54
2022-08-10T04:20:30.014Z,15.56
2022-08-10T04:21:30.212Z,15.54
2022-08-10T04:22:29.163Z,15.56
2022-08-10T04:23:29.143Z,15.54
2022-08-10T04:24:33.042Z,15.50
2022-08-10T04:25:29.185Z,15.52
2022-08-10T04:26:29.131Z,15.50
2022-08-10T04:27:29.100Z,15.52
2022-08-10T04:28:29.076Z,15.50
2022-08-10T04:29:29.090Z,15.50
2022-08-10T04:30:29.095Z,15.51
2022-08-10T04:31:29.067Z,15.54
2022-08-10T04:32:29.062Z,15.52
2022-08-10T04:33:29.071Z,15.50
2022-08-10T04:34:29.030Z,15.52
2022-08-10T04:35:29.007Z,15.48
2022-08-10T04:36:28.999Z,15.50
2022-08-10T04:37:28.987Z,15.48
2022-08-10T04:38:29.040Z,15.51
2022-08-10T04:39:29.031Z,15.50
2022-08-10T04:40:31.051Z,15.48
2022-08-10T04:41:28.961Z,15.48
2022-08-10T04:42:28.955Z,15.52
2022-08-10T04:43:28.982Z,15.50
2022-08-10T04:44:28.922Z,15.48
2022-08-10T04:45:49.167Z,15.48
2022-08-10T04:46:42.720Z,15.45
2022-08-10T04:47:57.417Z,15.43
2022-08-10T04:48:41.170Z,15.41
2022-08-10T04:49:55.301Z,15.40
2022-08-10T04:50:29.851Z,15.40
2022-08-10T04:51:28.923Z,15.38
2022-08-10T04:52:28.882Z,15.35
2022-08-10T04:53:28.848Z,15.36
2022-08-10T04:54:29.905Z,15.35
2022-08-10T04:55:28.816Z,15.33
2022-08-10T04:56:31.496Z,15.36
2022-08-10T04:57:28.825Z,15.38
2022-08-10T04:58:28.773Z,15.38
2022-08-10T04:59:28.804Z,15.43
2022-08-10T05:00:28.744Z,15.41
2022-08-10T05:02:21.623Z,15.40
2022-08-10T05:02:38.731Z,15.38
2022-08-10T05:03:29.726Z,15.38
2022-08-10T05:04:37.204Z,15.33
2022-08-10T05:05:29.690Z,15.36
2022-08-10T05:06:28.688Z,15.40
2022-08-10T05:07:28.709Z,15.41
2022-08-10T05:08:28.669Z,15.36
2022-08-10T05:09:28.731Z,15.36
2022-08-10T05:10:28.639Z,15.32
2022-08-10T05:11:28.639Z,15.33
2022-08-10T05:12:28.631Z,15.32
2022-08-10T05:13:28.624Z,15.36
2022-08-10T05:14:28.620Z,15.36
2022-08-10T05:15:28.698Z,15.33
2022-08-10T05:16:32.111Z,15.33
2022-08-10T05:17:28.565Z,15.36
2022-08-10T05:18:28.560Z,15.33
2022-08-10T05:20:04.905Z,15.38
2022-08-10T05:20:29.589Z,15.40
2022-08-10T05:22:02.224Z,15.40
2022-08-10T05:22:29.518Z,15.43
2022-08-10T05:23:28.504Z,15.44
2022-08-10T05:24:28.479Z,15.43
2022-08-10T05:25:28.471Z,15.47
2022-08-10T05:26:28.635Z,15.48
2022-08-10T05:27:28.550Z,15.48
2022-08-10T05:28:30.187Z,15.47
2022-08-10T05:29:28.451Z,15.50
2022-08-10T05:30:28.411Z,15.51
2022-08-10T05:31:28.408Z,15.50
2022-08-10T05:32:28.421Z,15.54
2022-08-10T05:33:28.422Z,15.56
2022-08-10T05:34:28.374Z,15.58
2022-08-10T05:35:28.368Z,15.59
2022-08-10T05:36:28.455Z,15.59
2022-08-10T05:38:09.147Z,15.60
2022-08-10T05:38:29.413Z,15.60
2022-08-10T05:39:31.019Z,15.63
2022-08-10T05:40:28.354Z,15.63
2022-08-10T05:41:28.378Z,15.65
2022-08-10T05:42:28.273Z,15.65
2022-08-10T05:43:28.353Z,15.68
2022-08-10T05:44:28.256Z,15.68
2022-08-10T05:45:28.326Z,15.70
2022-08-10T05:46:28.242Z,15.69
2022-08-10T05:47:28.224Z,15.70
2022-08-10T05:48:57.852Z,15.73
2022-08-10T05:49:29.195Z,15.72
2022-08-10T05:50:28.310Z,15.77
2022-08-10T05:51:28.189Z,15.78
2022-08-10T05:52:28.171Z,15.76
2022-08-10T05:54:02.576Z,15.78
2022-08-10T05:54:29.158Z,15.80
2022-08-10T05:55:28.153Z,15.78
2022-08-10T05:56:55.325Z,15.84
2022-08-10T05:57:29.115Z,15.85
2022-08-10T05:58:28.095Z,15.87
2022-08-10T06:00:33.324Z,15.90
2022-08-10T06:00:37.509Z,15.91
2022-08-10T06:01:29.230Z,15.91
2022-08-10T06:02:33.115Z,15.93
2022-08-10T06:03:29.070Z,15.96
2022-08-10T06:04:28.051Z,15.96
2022-08-10T06:05:28.043Z,15.98
2022-08-10T06:06:28.445Z,16.02
2022-08-10T06:07:28.028Z,16.05
2022-08-10T06:08:28.022Z,16.05
2022-08-10T06:09:28.004Z,16.05
2022-08-10T06:10:32.460Z,16.08
2022-08-10T06:12:23.574Z,16.10
2022-08-10T06:12:31.367Z,16.10
2022-08-10T06:13:34.521Z,16.10
2022-08-10T06:14:29.184Z,16.17
2022-08-10T06:15:51.538Z,16.17
2022-08-10T06:16:28.922Z,16.17
2022-08-10T06:17:27.974Z,16.24
2022-08-10T06:18:27.906Z,16.22
2022-08-10T06:19:27.945Z,16.24
2022-08-10T06:20:28.683Z,16.26
2022-08-10T06:21:27.906Z,16.28
2022-08-10T06:22:27.888Z,16.32
2022-08-10T06:23:27.856Z,16.33
2022-08-10T06:24:30.619Z,16.33
2022-08-10T06:26:08.505Z,16.32
2022-08-10T06:26:28.828Z,16.36
2022-08-10T06:27:34.771Z,16.34
2022-08-10T06:28:28.809Z,16.36
2022-08-10T06:29:27.829Z,16.34
2022-08-10T06:30:27.767Z,16.34
2022-08-10T06:31:28.600Z,16.36
2022-08-10T06:32:28.747Z,16.40
2022-08-10T06:33:27.764Z,16.39
2022-08-10T06:34:27.747Z,16.37
2022-08-10T06:35:27.749Z,16.40
2022-08-10T06:36:27.761Z,16.42
2022-08-10T06:37:28.708Z,16.40
2022-08-10T06:38:27.756Z,16.42
2022-08-10T06:39:34.191Z,16.42
2022-08-10T06:40:28.737Z,16.43
2022-08-10T06:42:14.585Z,16.43
2022-08-10T06:42:28.715Z,16.44
2022-08-10T06:43:27.667Z,16.40
2022-08-10T06:44:27.648Z,16.43
2022-08-10T06:45:27.692Z,16.43
2022-08-10T06:46:27.633Z,16.46
2022-08-10T06:47:27.642Z,16.46
2022-08-10T06:48:27.655Z,16.51
2022-08-10T06:49:27.561Z,16.52
2022-08-10T06:50:44.919Z,16.52
2022-08-10T06:51:28.564Z,16.52
2022-08-10T06:52:27.543Z,16.51
2022-08-10T06:53:51.957Z,16.55
2022-08-10T06:54:28.549Z,16.57
2022-08-10T06:55:49.529Z,16.59
2022-08-10T06:56:36.807Z,16.57
2022-08-10T06:57:28.463Z,16.57
2022-08-10T06:58:27.474Z,16.58
2022-08-10T06:59:27.467Z,16.59
2022-08-10T07:00:33.980Z,16.61
2022-08-10T07:01:28.552Z,16.67
2022-08-10T07:02:27.518Z,16.67
2022-08-10T07:03:27.404Z,16.70
2022-08-10T07:04:32.282Z,16.74
2022-08-10T07:05:28.423Z,16.76
2022-08-10T07:06:27.407Z,16.77
2022-08-10T07:07:27.366Z,16.84
2022-08-10T07:08:27.357Z,16.87
2022-08-10T07:09:27.382Z,16.87
2022-08-10T07:10:41.293Z,16.88
2022-08-10T07:11:28.362Z,16.97
2022-08-10T07:12:27.395Z,16.99
2022-08-10T07:14:16.647Z,17.02
2022-08-10T07:14:28.339Z,17.06
2022-08-10T07:15:58.171Z,17.06
2022-08-10T07:16:28.290Z,17.07
2022-08-10T07:17:27.312Z,17.09
2022-08-10T07:18:27.270Z,17.10
2022-08-10T07:19:27.251Z,17.12
2022-08-10T07:20:27.285Z,17.14
2022-08-10T07:21:27.230Z,17.19
2022-08-10T07:23:55.455Z,17.20
2022-08-10T07:23:59.770Z,17.20
2022-08-10T07:24:28.217Z,17.24
2022-08-10T07:25:27.271Z,17.25
2022-08-10T07:26:27.207Z,17.30
2022-08-10T07:27:27.200Z,17.31
2022-08-10T07:28:28.172Z,17.31
2022-08-10T07:29:53.486Z,17.34
2022-08-10T07:30:28.180Z,17.35
2022-08-10T07:31:55.142Z,17.38
2022-08-10T07:32:28.250Z,17.43
2022-08-10T07:33:27.134Z,17.47
2022-08-10T07:34:29.120Z,17.49
2022-08-10T07:35:27.133Z,17.52
2022-08-10T07:36:27.090Z,17.52
2022-08-10T07:37:27.126Z,17.56
2022-08-10T07:38:27.094Z,17.63
2022-08-10T07:40:02.705Z,17.68
2022-08-10T07:40:28.073Z,17.69
2022-08-10T07:41:27.021Z,17.73
2022-08-10T07:42:27.097Z,17.75
2022-08-10T07:43:26.999Z,17.78
2022-08-10T07:44:26.986Z,17.78
2022-08-10T07:45:26.966Z,17.79
2022-08-10T07:46:26.960Z,17.81
2022-08-10T07:47:53.803Z,17.79
2022-08-10T07:48:27.984Z,17.81
2022-08-10T07:49:26.938Z,17.81
2022-08-10T07:50:26.920Z,17.81
2022-08-10T07:51:26.899Z,17.84
2022-08-10T07:52:26.964Z,17.83
2022-08-10T07:53:26.932Z,17.84
2022-08-10T07:54:26.859Z,17.84
2022-08-10T07:56:04.596Z,17.84
2022-08-10T07:56:48.094Z,17.84
2022-08-10T07:57:30.730Z,17.83
2022-08-10T07:58:26.874Z,17.88
2022-08-10T07:59:26.819Z,17.88
2022-08-10T08:00:26.794Z,17.90
2022-08-10T08:01:26.835Z,17.88
2022-08-10T08:02:26.796Z,17.91
2022-08-10T08:03:26.817Z,17.91
2022-08-10T08:04:26.764Z,17.91
2022-08-10T08:05:51.877Z,17.93
2022-08-10T08:06:27.778Z,17.96
2022-08-10T08:07:26.722Z,17.97
2022-08-10T08:08:28.911Z,18.01
2022-08-10T08:09:27.018Z,17.99
2022-08-10T08:10:27.024Z,17.99
2022-08-10T08:11:26.797Z,17.99
2022-08-10T08:12:26.752Z,18.01
2022-08-10T08:13:26.881Z,17.99
2022-08-10T08:14:26.750Z,17.99
2022-08-10T08:16:20.144Z,17.97
2022-08-10T08:16:27.992Z,18.02
2022-08-10T08:17:35.712Z,18.05
2022-08-10T08:18:27.753Z,18.08
2022-08-10T08:19:33.622Z,18.09
2022-08-10T08:20:27.952Z,18.11
2022-08-10T08:24:07.232Z,18.24
2022-08-10T08:24:09.974Z,18.28
2022-08-10T08:24:14.600Z,18.20
2022-08-10T08:24:32.726Z,18.31
2022-08-10T08:25:28.095Z,18.31
2022-08-10T08:26:27.937Z,18.33
2022-08-10T08:27:26.519Z,18.36
2022-08-10T08:28:26.550Z,18.34
2022-08-10T08:29:26.547Z,18.34
2022-08-10T08:30:28.062Z,18.34
2022-08-10T08:31:26.680Z,18.33
2022-08-10T08:32:26.649Z,18.34
2022-08-10T08:33:42.268Z,18.34
2022-08-10T08:34:31.305Z,18.36
2022-08-10T08:35:26.490Z,18.39
2022-08-10T08:36:26.423Z,18.39
2022-08-10T08:38:31.224Z,18.41
2022-08-10T08:38:32.044Z,18.45
2022-08-10T08:39:27.419Z,18.49
2022-08-10T08:40:26.496Z,18.51
2022-08-10T08:41:26.382Z,18.58
2022-08-10T08:42:26.493Z,18.64
2022-08-10T08:43:31.108Z,18.70
2022-08-10T08:44:30.514Z,18.74
2022-08-10T08:45:27.493Z,18.75
2022-08-10T08:46:26.314Z,18.76
2022-08-10T08:48:04.569Z,18.75
2022-08-10T08:48:27.288Z,18.79
2022-08-10T08:50:05.219Z,18.83
2022-08-10T08:50:27.274Z,18.86
2022-08-10T08:52:07.039Z,18.89
2022-08-10T08:52:27.243Z,18.94
2022-08-10T08:54:01.971Z,18.96
2022-08-10T08:54:27.232Z,18.97
2022-08-10T08:55:55.077Z,19.00
2022-08-10T08:56:27.243Z,19.01
2022-08-10T08:57:49.469Z,19.00
2022-08-10T08:58:27.220Z,19.04
2022-08-10T08:59:26.180Z,19.07
2022-08-10T09:00:26.479Z,19.09
2022-08-10T09:01:40.345Z,19.09
2022-08-10T09:02:27.886Z,19.12
2022-08-10T09:03:28.279Z,19.17
2022-08-10T09:04:26.471Z,19.26
2022-08-10T09:05:26.187Z,19.27
2022-08-10T09:06:26.099Z,19.31
2022-08-10T09:07:59.710Z,19.31
2022-08-10T09:08:27.163Z,19.34
2022-08-10T09:09:26.130Z,19.35
2022-08-10T09:10:26.060Z,19.39
2022-08-10T09:11:26.049Z,19.44
2022-08-10T09:12:26.043Z,19.49
2022-08-10T09:13:26.085Z,19.50
2022-08-10T09:14:26.180Z,19.52
2022-08-10T09:15:39.666Z,19.52
2022-08-10T09:16:27.029Z,19.52
2022-08-10T09:17:25.990Z,19.50
2022-08-10T09:18:26.006Z,19.52
2022-08-10T09:19:36.648Z,19.54
2022-08-10T09:20:26.953Z,19.57
2022-08-10T09:21:25.995Z,19.63
2022-08-10T09:22:25.956Z,19.67
2022-08-10T09:24:02.256Z,19.63
2022-08-10T09:24:26.915Z,19.64
2022-08-10T09:25:25.929Z,19.67
2022-08-10T09:26:25.935Z,19.67
2022-08-10T09:27:25.885Z,19.72
2022-08-10T09:28:26.642Z,19.74
2022-08-10T09:29:25.884Z,19.77
2022-08-10T09:30:28.396Z,19.79
2022-08-10T09:31:26.838Z,19.81
2022-08-10T09:36:15.599Z,19.84
2022-08-10T09:36:20.170Z,19.89
2022-08-10T09:36:21.265Z,19.94
2022-08-10T09:36:25.389Z,19.92
2022-08-10T09:36:32.911Z,19.94
2022-08-10T09:37:39.512Z,20.04
2022-08-10T09:38:26.771Z,20.08
2022-08-10T09:40:12.187Z,20.15
2022-08-10T09:40:57.733Z,20.23
2022-08-10T09:41:26.779Z,20.25
2022-08-10T09:42:25.718Z,20.25
2022-08-10T09:43:26.655Z,20.29
2022-08-10T09:44:25.702Z,20.27
2022-08-10T09:45:25.699Z,20.27
2022-08-10T09:46:27.742Z,20.25
2022-08-10T09:48:01.443Z,20.25
2022-08-10T09:48:26.638Z,20.22
2022-08-10T09:49:52.859Z,20.23
2022-08-10T09:50:26.619Z,20.26
2022-08-10T09:51:44.897Z,20.30
2022-08-10T09:52:26.664Z,20.36
2022-08-10T09:53:25.580Z,20.48
2022-08-10T09:54:25.588Z,20.52
2022-08-10T09:56:17.633Z,20.55
2022-08-10T09:56:28.786Z,20.55
2022-08-10T09:57:55.177Z,20.56
2022-08-10T09:58:26.531Z,20.56
2022-08-10T09:59:56.496Z,20.55
2022-08-10T10:00:26.513Z,20.55
2022-08-10T10:01:58.131Z,20.53
2022-08-10T10:02:26.565Z,20.50
2022-08-10T10:03:26.181Z,20.53
2022-08-10T10:04:25.523Z,20.53
2022-08-10T10:05:26.457Z,20.50
2022-08-10T10:06:25.464Z,20.49
2022-08-10T10:07:25.450Z,20.50
2022-08-10T10:08:25.585Z,20.60
2022-08-10T10:09:26.851Z,20.64
2022-08-10T10:10:25.467Z,20.67
2022-08-10T10:11:25.427Z,20.68
2022-08-10T10:12:25.397Z,20.70
2022-08-10T10:14:03.524Z,20.68
2022-08-10T10:14:26.378Z,20.68
2022-08-10T10:15:25.978Z,20.68
2022-08-10T10:16:25.395Z,20.70
2022-08-10T10:17:25.378Z,20.70
2022-08-10T10:18:25.367Z,20.75
2022-08-10T10:19:25.350Z,20.79
2022-08-10T10:20:25.319Z,20.80
2022-08-10T10:21:54.512Z,20.82
2022-08-10T10:22:26.389Z,20.85
2022-08-10T10:23:25.259Z,20.89
2022-08-10T10:24:25.259Z,20.90
2022-08-10T10:25:25.320Z,20.92
2022-08-10T10:26:26.242Z,20.90
2022-08-10T10:27:25.230Z,20.90
2022-08-10T10:28:25.221Z,20.92
2022-08-10T10:29:57.512Z,20.92
2022-08-10T10:30:26.260Z,20.93
2022-08-10T10:31:25.182Z,20.98
2022-08-10T10:32:25.177Z,20.98
2022-08-10T10:33:26.162Z,20.98
2022-08-10T10:34:25.175Z,20.98
2022-08-10T10:35:25.182Z,20.93
2022-08-10T10:36:25.145Z,20.98
2022-08-10T10:38:01.614Z,21.03
2022-08-10T10:38:26.124Z,21.07
2022-08-10T10:39:25.162Z,21.11
2022-08-10T10:40:25.106Z,21.18
2022-08-10T10:41:25.094Z,21.22
2022-08-10T10:42:44.422Z,21.25
2022-08-10T10:43:26.068Z,21.28
2022-08-10T10:44:25.063Z,21.29
2022-08-10T10:45:25.076Z,21.29
2022-08-10T10:46:25.028Z,21.28
2022-08-10T10:47:25.025Z,21.30
2022-08-10T10:48:28.924Z,21.32
2022-08-10T10:49:24.987Z,21.30
2022-08-10T10:50:25.007Z,21.30
2022-08-10T10:51:25.009Z,21.30
2022-08-10T10:52:24.970Z,21.37
2022-08-10T10:53:24.954Z,21.38
2022-08-10T10:54:24.955Z,21.40
2022-08-10T10:55:24.989Z,21.38
2022-08-10T10:56:25.016Z,21.38
2022-08-10T10:57:58.683Z,21.35
2022-08-10T10:58:28.397Z,21.38
2022-08-10T10:59:53.651Z,21.44
2022-08-10T11:00:25.949Z,21.50
2022-08-10T11:01:24.916Z,21.58
2022-08-10T11:02:24.910Z,21.62
2022-08-10T11:03:25.859Z,21.66
2022-08-10T11:04:24.841Z,21.69
2022-08-10T11:05:24.848Z,21.71
2022-08-10T11:06:34.356Z,21.77
2022-08-10T11:07:31.657Z,21.75
2022-08-10T11:08:28.836Z,21.74
2022-08-10T11:09:59.999Z,21.73
2022-08-10T11:10:32.578Z,21.71
2022-08-10T11:12:00.171Z,21.71
2022-08-10T11:12:26.281Z,21.71
2022-08-10T11:14:25.776Z,21.69
2022-08-10T11:14:29.298Z,21.69
2022-08-10T11:15:24.776Z,21.71
2022-08-10T11:16:24.716Z,21.75
2022-08-10T11:17:24.709Z,21.81
2022-08-10T11:18:24.694Z,21.85
2022-08-10T11:19:24.700Z,21.91
2022-08-10T11:20:24.726Z,21.91
2022-08-10T11:21:24.679Z,21.93
2022-08-10T11:22:24.675Z,21.91
2022-08-10T11:23:24.719Z,21.94
2022-08-10T11:24:47.375Z,21.96
2022-08-10T11:25:25.618Z,22.01
2022-08-10T11:26:24.599Z,22.01
2022-08-10T11:27:24.610Z,22.06
2022-08-10T11:28:24.580Z,22.11
2022-08-10T11:29:24.634Z,22.11
2022-08-10T11:30:24.619Z,22.16
2022-08-10T11:31:24.548Z,22.22
2022-08-10T11:32:24.559Z,22.25
2022-08-10T11:33:30.992Z,22.27
2022-08-10T11:34:48.909Z,22.23
2022-08-10T11:35:25.530Z,22.25
2022-08-10T11:36:24.481Z,22.25
2022-08-10T11:37:24.503Z,22.28
2022-08-10T11:38:32.901Z,22.31
2022-08-10T11:39:25.527Z,22.33
2022-08-10T11:40:24.522Z,22.33
2022-08-10T11:42:09.880Z,22.36
2022-08-10T11:42:34.920Z,22.40
2022-08-10T11:43:25.424Z,22.41
2022-08-10T11:44:24.408Z,22.43
2022-08-10T11:45:24.411Z,22.49
2022-08-10T11:46:28.720Z,22.56
2022-08-10T11:47:24.373Z,22.58
2022-08-10T11:48:54.361Z,22.62
2022-08-10T11:49:25.346Z,22.66
2022-08-10T11:50:24.641Z,22.67
2022-08-10T11:51:24.330Z,22.70
2022-08-10T11:52:24.319Z,22.64
2022-08-10T11:53:24.305Z,22.67
2022-08-10T11:54:24.316Z,22.70
2022-08-10T11:55:24.278Z,22.71
2022-08-10T11:56:24.316Z,22.74
2022-08-10T11:57:24.313Z,22.77
2022-08-10T11:58:25.274Z,22.74
2022-08-10T11:59:24.281Z,22.74
2022-08-10T12:00:24.245Z,22.74
2022-08-10T12:01:24.227Z,22.76
2022-08-10T12:02:24.354Z,22.74
2022-08-10T12:03:24.189Z,22.76
2022-08-10T12:04:24.198Z,22.77
2022-08-10T12:05:24.185Z,22.77
2022-08-10T12:06:53.790Z,22.77
2022-08-10T12:10:01.816Z,22.81
2022-08-10T12:10:03.728Z,22.81
2022-08-10T12:10:09.880Z,22.85
2022-08-10T12:10:25.142Z,22.86
2022-08-10T12:11:25.269Z,22.86
2022-08-10T12:12:24.100Z,22.89
2022-08-10T12:13:24.110Z,22.91
2022-08-10T12:14:24.084Z,22.96
2022-08-10T12:15:24.081Z,23.01
2022-08-10T12:16:24.159Z,23.06
2022-08-10T12:17:31.248Z,23.07
2022-08-10T12:18:24.033Z,23.08
2022-08-10T12:19:24.022Z,23.13
2022-08-10T12:20:24.027Z,23.15
2022-08-10T12:21:24.011Z,23.18
2022-08-10T12:22:24.004Z,23.25
2022-08-10T12:23:23.973Z,23.25
2022-08-10T12:24:23.972Z,23.26
2022-08-10T12:25:57.821Z,23.29
2022-08-10T12:26:24.958Z,23.29
2022-08-10T12:27:23.939Z,23.28
2022-08-10T12:28:50.615Z,23.29
2022-08-10T12:29:25.559Z,23.39
2022-08-10T12:30:23.898Z,23.45
2022-08-10T12:31:23.902Z,23.51
2022-08-10T12:32:24.717Z,23.55
2022-08-10T12:33:23.886Z,23.55
2022-08-10T12:34:23.860Z,23.55
2022-08-10T12:35:26.290Z,23.54
2022-08-10T12:36:23.831Z,23.51
2022-08-10T12:37:23.836Z,23.56
2022-08-10T12:38:23.976Z,23.56
2022-08-10T12:39:23.839Z,23.55
2022-08-10T12:40:35.007Z,23.55
2022-08-10T12:41:44.621Z,23.56
2022-08-10T12:42:34.820Z,23.56
2022-08-10T12:44:05.167Z,23.59
2022-08-10T12:44:24.771Z,23.61
2022-08-10T12:45:24.756Z,23.60
2022-08-10T12:46:23.725Z,23.61
2022-08-10T12:47:23.718Z,23.63
2022-08-10T12:48:23.801Z,23.64
2022-08-10T12:49:24.730Z,23.64
2022-08-10T12:50:32.935Z,23.69
2022-08-10T12:51:24.677Z,23.67
2022-08-10T12:52:23.666Z,23.69